| Date | Time | Temp. (oF) | Dew Point (oF) | Rel. Hum. (%) | Press. (in.) | Wind Dir. | Wind Speed (mph) | Hourly Rainfall (in.) |
|
|---|---|---|---|---|---|---|---|---|---|
| 1 | 06/01 | 00:00 | 60 | 59 | 100 | 29.35 | W | 3 | 0.00 |
| 2 | 05/31 | 23:00 | 61 | 60 | 100 | 29.36 | WSW | 7 | 0.00 |
| 3 | 05/31 | 22:00 | 61 | 60 | 100 | 29.37 | SSW | 3 | 0.00 |
| 4 | 05/31 | 21:00 | 63 | 62 | 97 | 29.35 | W | 2 | 0.07 |
| 5 | 05/31 | 20:00 | 65 | 62 | 91 | 29.34 | S | 4 | 0.00 |
| 6 | 05/31 | 19:00 | 65 | 62 | 91 | 29.36 | SE | 0 | 0.00 |
| 7 | 05/31 | 18:00 | 65 | 62 | 91 | 29.38 | SSE | 5 | 0.00 |
| 8 | 05/31 | 17:00 | 65 | 61 | 89 | 29.40 | SSE | 2 | 0.01 |
| 9 | 05/31 | 16:00 | 66 | 60 | 82 | 29.42 | ESE | 8 | 0.00 |
| 10 | 05/31 | 15:00 | 70 | 62 | 76 | 29.43 | S | 5 | 0.01 |
| 11 | 05/31 | 14:00 | 67 | 63 | 88 | 29.46 | SSE | 3 | 0.00 |
| 12 | 05/31 | 13:00 | 65 | 63 | 96 | 29.51 | SE | 7 | 0.00 |
| 13 | 05/31 | 12:00 | 64 | 62 | 96 | 29.54 | SSE | 4 | 0.02 |
| 14 | 05/31 | 11:00 | 64 | 62 | 94 | 29.54 | S | 7 | 0.00 |
| 15 | 05/31 | 10:00 | 65 | 61 | 87 | 29.56 | S | 5 | 0.00 |
| 16 | 05/31 | 09:00 | 64 | 61 | 92 | 29.56 | ENE | 3 | 0.00 |
| 17 | 05/31 | 08:00 | 61 | 59 | 95 | 29.58 | SSE | 3 | 0.00 |
| 18 | 05/31 | 07:00 | 59 | 58 | 97 | 29.60 | E | 0 | 0.00 |
| 19 | 05/31 | 06:00 | 58 | 56 | 96 | 29.61 | NE | 2 | 0.00 |
| 20 | 05/31 | 05:00 | 60 | 58 | 94 | 29.62 | SSW | 0 | 0.00 |
| 21 | 05/31 | 04:00 | 61 | 58 | 93 | 29.63 | SSW | 0 | 0.00 |
| 22 | 05/31 | 03:00 | 61 | 58 | 92 | 29.64 | SSW | 0 | 0.00 |
| 23 | 05/31 | 02:00 | 62 | 58 | 89 | 29.65 | SSW | 1 | 0.00 |
| 24 | 05/31 | 01:00 | 62 | 58 | 87 | 29.67 | W | 0 | 0.00 |